sensor_id;sensor_type;location;lat;lon;timestamp;P1;durP1;ratioP1;P2;durP2;ratioP2
81672;SDS011;71092;41.158;-8.680;2023-07-30T00:02:17;7.55;;;3.65;;
81672;SDS011;71092;41.158;-8.680;2023-07-30T00:04:44;9.07;;;3.88;;
81672;SDS011;71092;41.158;-8.680;2023-07-30T00:07:11;6.80;;;3.75;;
81672;SDS011;71092;41.158;-8.680;2023-07-30T00:09:37;7.03;;;3.35;;
81672;SDS011;71092;41.158;-8.680;2023-07-30T00:12:04;7.28;;;3.95;;
81672;SDS011;71092;41.158;-8.680;2023-07-30T00:14:30;9.45;;;3.80;;
81672;SDS011;71092;41.158;-8.680;2023-07-30T00:16:56;8.52;;;3.72;;
81672;SDS011;71092;41.158;-8.680;2023-07-30T00:19:22;6.90;;;3.78;;
81672;SDS011;71092;41.158;-8.680;2023-07-30T00:21:48;10.50;;;3.10;;
81672;SDS011;71092;41.158;-8.680;2023-07-30T00:24:14;10.07;;;3.58;;
81672;SDS011;71092;41.158;-8.680;2023-07-30T00:26:39;8.27;;;3.95;;
81672;SDS011;71092;41.158;-8.680;2023-07-30T00:29:05;8.23;;;3.72;;
81672;SDS011;71092;41.158;-8.680;2023-07-30T00:31:31;7.75;;;3.60;;
81672;SDS011;71092;41.158;-8.680;2023-07-30T00:33:57;7.32;;;3.10;;
81672;SDS011;71092;41.158;-8.680;2023-07-30T00:36:23;7.22;;;3.70;;
81672;SDS011;71092;41.158;-8.680;2023-07-30T00:38:49;7.45;;;3.25;;
81672;SDS011;71092;41.158;-8.680;2023-07-30T00:41:15;9.70;;;3.38;;
81672;SDS011;71092;41.158;-8.680;2023-07-30T00:43:41;8.48;;;3.70;;
81672;SDS011;71092;41.158;-8.680;2023-07-30T00:46:07;6.93;;;3.13;;
81672;SDS011;71092;41.158;-8.680;2023-07-30T00:48:33;5.78;;;3.03;;
81672;SDS011;71092;41.158;-8.680;2023-07-30T00:50:59;9.20;;;3.35;;
81672;SDS011;71092;41.158;-8.680;2023-07-30T00:53:28;9.45;;;3.88;;
81672;SDS011;71092;41.158;-8.680;2023-07-30T00:55:55;7.38;;;3.55;;
81672;SDS011;71092;41.158;-8.680;2023-07-30T00:58:21;6.90;;;3.08;;
81672;SDS011;71092;41.158;-8.680;2023-07-30T01:00:47;8.35;;;3.70;;
81672;SDS011;71092;41.158;-8.680;2023-07-30T01:03:13;6.25;;;3.15;;
81672;SDS011;71092;41.158;-8.680;2023-07-30T01:05:39;9.10;;;3.92;;
81672;SDS011;71092;41.158;-8.680;2023-07-30T01:08:05;9.55;;;3.28;;
81672;SDS011;71092;41.158;-8.680;2023-07-30T01:10:31;7.97;;;3.67;;
81672;SDS011;71092;41.158;-8.680;2023-07-30T01:13:01;9.00;;;3.85;;
81672;SDS011;71092;41.158;-8.680;2023-07-30T01:15:29;7.90;;;3.80;;
81672;SDS011;71092;41.158;-8.680;2023-07-30T01:17:55;6.82;;;3.65;;
81672;SDS011;71092;41.158;-8.680;2023-07-30T01:20:21;13.00;;;3.67;;
81672;SDS011;71092;41.158;-8.680;2023-07-30T01:22:47;9.43;;;3.40;;
81672;SDS011;71092;41.158;-8.680;2023-07-30T01:25:14;9.07;;;4.18;;
81672;SDS011;71092;41.158;-8.680;2023-07-30T01:27:40;6.13;;;3.40;;
81672;SDS011;71092;41.158;-8.680;2023-07-30T01:32:43;8.38;;;3.88;;
81672;SDS011;71092;41.158;-8.680;2023-07-30T01:35:10;7.18;;;3.50;;
81672;SDS011;71092;41.158;-8.680;2023-07-30T01:37:38;7.13;;;3.63;;
81672;SDS011;71092;41.158;-8.680;2023-07-30T01:40:06;8.05;;;3.45;;
81672;SDS011;71092;41.158;-8.680;2023-07-30T01:42:32;7.35;;;3.05;;
81672;SDS011;71092;41.158;-8.680;2023-07-30T01:44:58;10.10;;;3.90;;
81672;SDS011;71092;41.158;-8.680;2023-07-30T01:47:24;5.93;;;3.15;;
81672;SDS011;71092;41.158;-8.680;2023-07-30T01:49:50;8.18;;;3.85;;
81672;SDS011;71092;41.158;-8.680;2023-07-30T01:52:17;10.57;;;3.38;;
81672;SDS011;71092;41.158;-8.680;2023-07-30T01:54:42;9.38;;;4.25;;
81672;SDS011;71092;41.158;-8.680;2023-07-30T01:57:08;7.75;;;3.40;;
81672;SDS011;71092;41.158;-8.680;2023-07-30T01:59:34;7.85;;;3.53;;
81672;SDS011;71092;41.158;-8.680;2023-07-30T02:02:00;6.15;;;3.15;;
81672;SDS011;71092;41.158;-8.680;2023-07-30T02:04:26;7.80;;;3.40;;
81672;SDS011;71092;41.158;-8.680;2023-07-30T02:06:52;6.45;;;3.20;;
81672;SDS011;71092;41.158;-8.680;2023-07-30T02:09:18;9.02;;;3.38;;
81672;SDS011;71092;41.158;-8.680;2023-07-30T02:11:44;9.93;;;3.75;;
81672;SDS011;71092;41.158;-8.680;2023-07-30T02:14:10;8.82;;;3.75;;
81672;SDS011;71092;41.158;-8.680;2023-07-30T02:16:36;7.47;;;3.30;;
81672;SDS011;71092;41.158;-8.680;2023-07-30T02:19:02;9.98;;;3.90;;
81672;SDS011;71092;41.158;-8.680;2023-07-30T02:21:27;7.40;;;3.55;;
81672;SDS011;71092;41.158;-8.680;2023-07-30T02:23:55;8.02;;;3.28;;
81672;SDS011;71092;41.158;-8.680;2023-07-30T02:26:21;5.82;;;2.90;;
81672;SDS011;71092;41.158;-8.680;2023-07-30T02:28:47;7.43;;;3.20;;
81672;SDS011;71092;41.158;-8.680;2023-07-30T02:31:13;9.70;;;3.85;;
81672;SDS011;71092;41.158;-8.680;2023-07-30T02:33:39;7.95;;;3.85;;
81672;SDS011;71092;41.158;-8.680;2023-07-30T02:36:05;6.20;;;3.20;;
81672;SDS011;71092;41.158;-8.680;2023-07-30T02:38:31;6.68;;;2.88;;
81672;SDS011;71092;41.158;-8.680;2023-07-30T02:40:57;8.88;;;3.47;;
81672;SDS011;71092;41.158;-8.680;2023-07-30T02:43:23;9.80;;;3.75;;
81672;SDS011;71092;41.158;-8.680;2023-07-30T02:45:48;7.75;;;3.50;;
81672;SDS011;71092;41.158;-8.680;2023-07-30T02:48:14;5.97;;;2.58;;
81672;SDS011;71092;41.158;-8.680;2023-07-30T02:50:40;6.22;;;3.20;;
81672;SDS011;71092;41.158;-8.680;2023-07-30T02:53:06;7.78;;;3.35;;
81672;SDS011;71092;41.158;-8.680;2023-07-30T02:55:32;5.95;;;3.20;;
81672;SDS011;71092;41.158;-8.680;2023-07-30T02:57:58;6.53;;;3.17;;
81672;SDS011;71092;41.158;-8.680;2023-07-30T03:00:23;8.50;;;4.00;;
81672;SDS011;71092;41.158;-8.680;2023-07-30T03:02:49;10.90;;;3.95;;
81672;SDS011;71092;41.158;-8.680;2023-07-30T03:05:15;7.43;;;3.50;;
81672;SDS011;71092;41.158;-8.680;2023-07-30T03:07:43;6.90;;;3.50;;
81672;SDS011;71092;41.158;-8.680;2023-07-30T03:10:09;8.35;;;3.40;;
81672;SDS011;71092;41.158;-8.680;2023-07-30T03:12:35;9.05;;;3.80;;
81672;SDS011;71092;41.158;-8.680;2023-07-30T03:15:01;8.38;;;3.17;;
81672;SDS011;71092;41.158;-8.680;2023-07-30T03:17:27;6.38;;;3.33;;
81672;SDS011;71092;41.158;-8.680;2023-07-30T03:19:53;10.27;;;3.72;;
81672;SDS011;71092;41.158;-8.680;2023-07-30T03:22:18;7.22;;;3.30;;
81672;SDS011;71092;41.158;-8.680;2023-07-30T03:24:47;6.57;;;3.20;;
81672;SDS011;71092;41.158;-8.680;2023-07-30T03:27:13;8.60;;;3.10;;
81672;SDS011;71092;41.158;-8.680;2023-07-30T03:29:39;5.40;;;2.42;;
81672;SDS011;71092;41.158;-8.680;2023-07-30T03:32:05;6.43;;;3.20;;
81672;SDS011;71092;41.158;-8.680;2023-07-30T03:34:31;5.82;;;3.15;;
81672;SDS011;71092;41.158;-8.680;2023-07-30T03:36:58;7.82;;;3.45;;
81672;SDS011;71092;41.158;-8.680;2023-07-30T03:39:25;8.82;;;3.88;;
81672;SDS011;71092;41.158;-8.680;2023-07-30T03:41:52;8.88;;;3.80;;
81672;SDS011;71092;41.158;-8.680;2023-07-30T03:44:18;7.03;;;3.10;;
81672;SDS011;71092;41.158;-8.680;2023-07-30T03:46:45;11.68;;;3.95;;
81672;SDS011;71092;41.158;-8.680;2023-07-30T03:49:11;6.10;;;3.20;;
81672;SDS011;71092;41.158;-8.680;2023-07-30T03:51:37;6.78;;;3.72;;
81672;SDS011;71092;41.158;-8.680;2023-07-30T03:54:06;6.93;;;3.47;;
81672;SDS011;71092;41.158;-8.680;2023-07-30T03:56:31;8.02;;;3.30;;
81672;SDS011;71092;41.158;-8.680;2023-07-30T03:58:57;6.85;;;3.38;;
81672;SDS011;71092;41.158;-8.680;2023-07-30T04:01:23;7.63;;;4.18;;
81672;SDS011;71092;41.158;-8.680;2023-07-30T04:03:49;7.35;;;3.28;;
81672;SDS011;71092;41.158;-8.680;2023-07-30T04:06:15;7.93;;;3.40;;
81672;SDS011;71092;41.158;-8.680;2023-07-30T04:08:41;11.73;;;3.55;;
81672;SDS011;71092;41.158;-8.680;2023-07-30T04:11:07;8.70;;;2.95;;
81672;SDS011;71092;41.158;-8.680;2023-07-30T04:13:34;7.05;;;3.33;;
81672;SDS011;71092;41.158;-8.680;2023-07-30T04:15:59;10.55;;;3.35;;
81672;SDS011;71092;41.158;-8.680;2023-07-30T04:18:25;8.60;;;3.25;;
81672;SDS011;71092;41.158;-8.680;2023-07-30T04:20:54;9.02;;;3.53;;
81672;SDS011;71092;41.158;-8.680;2023-07-30T04:23:21;7.85;;;3.10;;
81672;SDS011;71092;41.158;-8.680;2023-07-30T04:25:48;9.18;;;4.15;;
81672;SDS011;71092;41.158;-8.680;2023-07-30T04:28:15;8.02;;;3.78;;
81672;SDS011;71092;41.158;-8.680;2023-07-30T04:30:42;7.72;;;3.30;;
81672;SDS011;71092;41.158;-8.680;2023-07-30T04:33:08;7.68;;;3.65;;
81672;SDS011;71092;41.158;-8.680;2023-07-30T04:35:36;9.68;;;3.72;;
81672;SDS011;71092;41.158;-8.680;2023-07-30T04:38:02;7.30;;;3.95;;
81672;SDS011;71092;41.158;-8.680;2023-07-30T04:40:29;8.27;;;3.42;;
81672;SDS011;71092;41.158;-8.680;2023-07-30T04:42:56;7.38;;;3.90;;
81672;SDS011;71092;41.158;-8.680;2023-07-30T04:45:22;8.00;;;3.55;;
81672;SDS011;71092;41.158;-8.680;2023-07-30T04:47:49;7.97;;;3.78;;
81672;SDS011;71092;41.158;-8.680;2023-07-30T04:50:15;7.57;;;3.53;;
81672;SDS011;71092;41.158;-8.680;2023-07-30T04:52:41;6.47;;;3.25;;
81672;SDS011;71092;41.158;-8.680;2023-07-30T04:55:07;7.35;;;3.03;;
81672;SDS011;71092;41.158;-8.680;2023-07-30T04:57:33;6.10;;;3.58;;
81672;SDS011;71092;41.158;-8.680;2023-07-30T04:59:59;7.40;;;3.30;;
81672;SDS011;71092;41.158;-8.680;2023-07-30T05:02:25;6.70;;;3.42;;
81672;SDS011;71092;41.158;-8.680;2023-07-30T05:04:50;9.23;;;3.70;;
81672;SDS011;71092;41.158;-8.680;2023-07-30T05:07:16;7.00;;;3.88;;
81672;SDS011;71092;41.158;-8.680;2023-07-30T05:09:42;10.52;;;3.67;;
81672;SDS011;71092;41.158;-8.680;2023-07-30T05:12:08;8.70;;;3.58;;
81672;SDS011;71092;41.158;-8.680;2023-07-30T05:14:34;9.07;;;3.90;;
81672;SDS011;71092;41.158;-8.680;2023-07-30T05:17:00;10.73;;;4.45;;
81672;SDS011;71092;41.158;-8.680;2023-07-30T05:19:25;6.13;;;3.08;;
81672;SDS011;71092;41.158;-8.680;2023-07-30T05:21:51;8.27;;;3.13;;
81672;SDS011;71092;41.158;-8.680;2023-07-30T05:24:17;7.82;;;3.28;;
81672;SDS011;71092;41.158;-8.680;2023-07-30T05:26:43;6.35;;;3.72;;
81672;SDS011;71092;41.158;-8.680;2023-07-30T05:29:09;6.63;;;3.22;;
81672;SDS011;71092;41.158;-8.680;2023-07-30T05:31:34;7.07;;;3.55;;
81672;SDS011;71092;41.158;-8.680;2023-07-30T05:34:00;6.78;;;3.28;;
81672;SDS011;71092;41.158;-8.680;2023-07-30T05:36:26;9.15;;;3.65;;
81672;SDS011;71092;41.158;-8.680;2023-07-30T05:38:52;15.63;;;3.38;;
81672;SDS011;71092;41.158;-8.680;2023-07-30T05:41:17;6.93;;;2.97;;
81672;SDS011;71092;41.158;-8.680;2023-07-30T05:43:44;7.57;;;4.18;;
81672;SDS011;71092;41.158;-8.680;2023-07-30T05:46:10;7.15;;;3.78;;
81672;SDS011;71092;41.158;-8.680;2023-07-30T05:48:36;9.02;;;3.97;;
81672;SDS011;71092;41.158;-8.680;2023-07-30T05:51:01;8.20;;;3.35;;
81672;SDS011;71092;41.158;-8.680;2023-07-30T05:53:28;8.57;;;3.97;;
81672;SDS011;71092;41.158;-8.680;2023-07-30T05:55:53;7.03;;;3.75;;
81672;SDS011;71092;41.158;-8.680;2023-07-30T05:58:19;6.93;;;3.60;;
81672;SDS011;71092;41.158;-8.680;2023-07-30T06:00:45;6.70;;;3.58;;
81672;SDS011;71092;41.158;-8.680;2023-07-30T06:03:11;7.78;;;4.38;;
81672;SDS011;71092;41.158;-8.680;2023-07-30T06:05:40;9.30;;;4.13;;
81672;SDS011;71092;41.158;-8.680;2023-07-30T06:08:07;7.30;;;3.78;;
81672;SDS011;71092;41.158;-8.680;2023-07-30T06:10:36;8.15;;;3.72;;
81672;SDS011;71092;41.158;-8.680;2023-07-30T06:13:03;9.57;;;3.63;;
81672;SDS011;71092;41.158;-8.680;2023-07-30T06:15:31;6.97;;;3.25;;
81672;SDS011;71092;41.158;-8.680;2023-07-30T06:17:57;7.30;;;3.80;;
81672;SDS011;71092;41.158;-8.680;2023-07-30T06:20:23;7.10;;;3.60;;
81672;SDS011;71092;41.158;-8.680;2023-07-30T06:22:49;9.15;;;2.95;;
81672;SDS011;71092;41.158;-8.680;2023-07-30T06:25:14;6.85;;;3.45;;
81672;SDS011;71092;41.158;-8.680;2023-07-30T06:27:40;7.03;;;3.42;;
81672;SDS011;71092;41.158;-8.680;2023-07-30T06:30:06;8.43;;;3.72;;
81672;SDS011;71092;41.158;-8.680;2023-07-30T06:32:32;7.25;;;3.70;;
81672;SDS011;71092;41.158;-8.680;2023-07-30T06:34:58;9.20;;;3.67;;
81672;SDS011;71092;41.158;-8.680;2023-07-30T06:37:24;7.97;;;3.65;;
81672;SDS011;71092;41.158;-8.680;2023-07-30T06:39:49;5.82;;;3.30;;
81672;SDS011;71092;41.158;-8.680;2023-07-30T06:42:15;6.72;;;3.83;;
81672;SDS011;71092;41.158;-8.680;2023-07-30T06:44:42;6.78;;;3.50;;
81672;SDS011;71092;41.158;-8.680;2023-07-30T06:47:08;7.32;;;3.20;;
81672;SDS011;71092;41.158;-8.680;2023-07-30T06:49:34;8.07;;;3.38;;
81672;SDS011;71092;41.158;-8.680;2023-07-30T06:52:00;7.15;;;3.38;;
81672;SDS011;71092;41.158;-8.680;2023-07-30T06:54:26;7.53;;;3.97;;
81672;SDS011;71092;41.158;-8.680;2023-07-30T06:56:53;10.05;;;3.55;;
81672;SDS011;71092;41.158;-8.680;2023-07-30T06:59:19;8.73;;;3.88;;
81672;SDS011;71092;41.158;-8.680;2023-07-30T07:01:45;8.73;;;3.38;;
81672;SDS011;71092;41.158;-8.680;2023-07-30T07:04:11;5.97;;;3.25;;
81672;SDS011;71092;41.158;-8.680;2023-07-30T07:06:37;8.32;;;3.33;;
81672;SDS011;71092;41.158;-8.680;2023-07-30T07:09:02;7.70;;;3.70;;
81672;SDS011;71092;41.158;-8.680;2023-07-30T07:11:28;7.20;;;3.85;;
81672;SDS011;71092;41.158;-8.680;2023-07-30T07:13:54;6.00;;;4.15;;
81672;SDS011;71092;41.158;-8.680;2023-07-30T07:16:20;9.57;;;4.03;;
81672;SDS011;71092;41.158;-8.680;2023-07-30T07:18:46;8.20;;;4.00;;
81672;SDS011;71092;41.158;-8.680;2023-07-30T07:21:14;7.57;;;4.15;;
81672;SDS011;71092;41.158;-8.680;2023-07-30T07:23:40;10.07;;;4.15;;
81672;SDS011;71092;41.158;-8.680;2023-07-30T07:26:06;8.13;;;4.00;;
81672;SDS011;71092;41.158;-8.680;2023-07-30T07:28:31;8.57;;;3.83;;
81672;SDS011;71092;41.158;-8.680;2023-07-30T07:30:57;9.18;;;3.67;;
81672;SDS011;71092;41.158;-8.680;2023-07-30T07:33:23;8.82;;;4.40;;
81672;SDS011;71092;41.158;-8.680;2023-07-30T07:35:49;8.48;;;3.97;;
81672;SDS011;71092;41.158;-8.680;2023-07-30T07:38:15;9.82;;;3.88;;
81672;SDS011;71092;41.158;-8.680;2023-07-30T07:40:41;8.00;;;3.28;;
81672;SDS011;71092;41.158;-8.680;2023-07-30T07:43:07;7.18;;;3.88;;
81672;SDS011;71092;41.158;-8.680;2023-07-30T07:45:34;8.57;;;3.90;;
81672;SDS011;71092;41.158;-8.680;2023-07-30T07:48:00;7.38;;;3.83;;
81672;SDS011;71092;41.158;-8.680;2023-07-30T07:50:26;7.38;;;3.35;;
81672;SDS011;71092;41.158;-8.680;2023-07-30T07:52:52;9.88;;;3.58;;
81672;SDS011;71092;41.158;-8.680;2023-07-30T07:55:18;8.38;;;3.83;;
81672;SDS011;71092;41.158;-8.680;2023-07-30T07:57:43;8.82;;;4.03;;
81672;SDS011;71092;41.158;-8.680;2023-07-30T08:00:09;9.60;;;4.15;;
81672;SDS011;71092;41.158;-8.680;2023-07-30T08:02:40;7.55;;;3.35;;
81672;SDS011;71092;41.158;-8.680;2023-07-30T08:05:06;9.43;;;3.63;;
81672;SDS011;71092;41.158;-8.680;2023-07-30T08:07:33;8.35;;;4.30;;
81672;SDS011;71092;41.158;-8.680;2023-07-30T08:09:58;9.23;;;4.05;;
81672;SDS011;71092;41.158;-8.680;2023-07-30T08:12:24;9.07;;;3.95;;
81672;SDS011;71092;41.158;-8.680;2023-07-30T08:14:50;12.13;;;3.85;;
81672;SDS011;71092;41.158;-8.680;2023-07-30T08:17:17;11.07;;;4.90;;
81672;SDS011;71092;41.158;-8.680;2023-07-30T08:19:43;14.32;;;4.50;;
81672;SDS011;71092;41.158;-8.680;2023-07-30T08:22:09;25.85;;;10.00;;
81672;SDS011;71092;41.158;-8.680;2023-07-30T08:24:35;22.98;;;8.35;;
81672;SDS011;71092;41.158;-8.680;2023-07-30T08:27:01;23.40;;;6.60;;
81672;SDS011;71092;41.158;-8.680;2023-07-30T08:29:27;16.08;;;6.75;;
81672;SDS011;71092;41.158;-8.680;2023-07-30T08:31:53;27.48;;;8.98;;
81672;SDS011;71092;41.158;-8.680;2023-07-30T08:34:21;22.85;;;9.63;;
81672;SDS011;71092;41.158;-8.680;2023-07-30T08:36:47;20.45;;;8.38;;
81672;SDS011;71092;41.158;-8.680;2023-07-30T08:39:13;20.75;;;8.90;;
81672;SDS011;71092;41.158;-8.680;2023-07-30T08:41:39;22.58;;;8.20;;
81672;SDS011;71092;41.158;-8.680;2023-07-30T08:44:05;27.85;;;8.50;;
81672;SDS011;71092;41.158;-8.680;2023-07-30T08:46:31;19.27;;;8.45;;
81672;SDS011;71092;41.158;-8.680;2023-07-30T08:48:57;21.33;;;7.18;;
81672;SDS011;71092;41.158;-8.680;2023-07-30T08:51:23;25.75;;;9.57;;
81672;SDS011;71092;41.158;-8.680;2023-07-30T08:53:51;26.75;;;9.30;;
81672;SDS011;71092;41.158;-8.680;2023-07-30T08:56:17;18.77;;;7.22;;
81672;SDS011;71092;41.158;-8.680;2023-07-30T08:58:43;27.73;;;9.43;;
81672;SDS011;71092;41.158;-8.680;2023-07-30T09:01:11;16.17;;;5.43;;
81672;SDS011;71092;41.158;-8.680;2023-07-30T09:03:38;17.17;;;6.97;;
81672;SDS011;71092;41.158;-8.680;2023-07-30T09:06:05;19.63;;;7.53;;
81672;SDS011;71092;41.158;-8.680;2023-07-30T09:08:34;13.90;;;6.10;;
81672;SDS011;71092;41.158;-8.680;2023-07-30T09:11:06;23.73;;;9.02;;
81672;SDS011;71092;41.158;-8.680;2023-07-30T09:13:39;19.42;;;7.43;;
81672;SDS011;71092;41.158;-8.680;2023-07-30T09:29:12;17.50;;;8.13;;
81672;SDS011;71092;41.158;-8.680;2023-07-30T09:31:49;19.58;;;8.15;;
81672;SDS011;71092;41.158;-8.680;2023-07-30T09:34:25;17.95;;;6.40;;
81672;SDS011;71092;41.158;-8.680;2023-07-30T09:36:51;14.98;;;6.95;;
81672;SDS011;71092;41.158;-8.680;2023-07-30T09:39:21;16.20;;;6.63;;
81672;SDS011;71092;41.158;-8.680;2023-07-30T09:41:49;16.27;;;5.88;;
81672;SDS011;71092;41.158;-8.680;2023-07-30T09:44:17;19.20;;;6.78;;
81672;SDS011;71092;41.158;-8.680;2023-07-30T09:46:45;16.92;;;7.22;;
81672;SDS011;71092;41.158;-8.680;2023-07-30T09:49:12;13.57;;;5.20;;
81672;SDS011;71092;41.158;-8.680;2023-07-30T09:51:38;15.02;;;5.18;;
81672;SDS011;71092;41.158;-8.680;2023-07-30T09:54:08;17.50;;;6.50;;
81672;SDS011;71092;41.158;-8.680;2023-07-30T09:56:38;14.57;;;6.40;;
81672;SDS011;71092;41.158;-8.680;2023-07-30T09:59:06;12.02;;;6.22;;
81672;SDS011;71092;41.158;-8.680;2023-07-30T10:01:36;20.52;;;7.55;;
81672;SDS011;71092;41.158;-8.680;2023-07-30T10:04:07;13.30;;;6.78;;
81672;SDS011;71092;41.158;-8.680;2023-07-30T10:06:34;13.60;;;6.25;;
81672;SDS011;71092;41.158;-8.680;2023-07-30T10:09:10;16.48;;;6.30;;
81672;SDS011;71092;41.158;-8.680;2023-07-30T10:11:36;14.02;;;6.78;;
81672;SDS011;71092;41.158;-8.680;2023-07-30T10:14:03;16.92;;;6.78;;
81672;SDS011;71092;41.158;-8.680;2023-07-30T10:16:29;10.90;;;6.70;;
81672;SDS011;71092;41.158;-8.680;2023-07-30T10:18:56;13.75;;;6.72;;
81672;SDS011;71092;41.158;-8.680;2023-07-30T10:21:26;11.70;;;6.63;;
81672;SDS011;71092;41.158;-8.680;2023-07-30T10:24:00;14.43;;;7.00;;
81672;SDS011;71092;41.158;-8.680;2023-07-30T10:26:27;23.42;;;8.57;;
81672;SDS011;71092;41.158;-8.680;2023-07-30T10:31:54;17.27;;;7.25;;
81672;SDS011;71092;41.158;-8.680;2023-07-30T10:34:21;19.20;;;7.43;;
81672;SDS011;71092;41.158;-8.680;2023-07-30T10:36:55;19.23;;;7.63;;
81672;SDS011;71092;41.158;-8.680;2023-07-30T10:39:25;22.63;;;8.68;;
81672;SDS011;71092;41.158;-8.680;2023-07-30T10:41:57;20.67;;;8.48;;
81672;SDS011;71092;41.158;-8.680;2023-07-30T10:46:51;18.98;;;8.25;;
81672;SDS011;71092;41.158;-8.680;2023-07-30T10:49:17;18.00;;;8.18;;
81672;SDS011;71092;41.158;-8.680;2023-07-30T10:51:44;20.27;;;8.60;;
81672;SDS011;71092;41.158;-8.680;2023-07-30T10:54:10;24.88;;;9.27;;
81672;SDS011;71092;41.158;-8.680;2023-07-30T10:56:36;20.23;;;9.13;;
81672;SDS011;71092;41.158;-8.680;2023-07-30T10:59:06;23.52;;;9.38;;
81672;SDS011;71092;41.158;-8.680;2023-07-30T11:01:39;18.63;;;9.27;;
81672;SDS011;71092;41.158;-8.680;2023-07-30T11:06:46;17.05;;;8.82;;
81672;SDS011;71092;41.158;-8.680;2023-07-30T11:09:20;18.77;;;9.13;;
81672;SDS011;71092;41.158;-8.680;2023-07-30T11:11:50;21.83;;;9.88;;
81672;SDS011;71092;41.158;-8.680;2023-07-30T11:14:18;22.08;;;8.25;;
81672;SDS011;71092;41.158;-8.680;2023-07-30T11:16:51;19.10;;;8.60;;
81672;SDS011;71092;41.158;-8.680;2023-07-30T11:19:21;19.58;;;8.85;;
81672;SDS011;71092;41.158;-8.680;2023-07-30T11:21:47;18.83;;;8.52;;
81672;SDS011;71092;41.158;-8.680;2023-07-30T11:24:14;21.75;;;9.18;;
81672;SDS011;71092;41.158;-8.680;2023-07-30T11:26:40;17.95;;;8.82;;
81672;SDS011;71092;41.158;-8.680;2023-07-30T11:29:15;20.17;;;9.43;;
81672;SDS011;71092;41.158;-8.680;2023-07-30T11:31:42;18.02;;;9.05;;
81672;SDS011;71092;41.158;-8.680;2023-07-30T11:34:09;19.70;;;8.45;;
81672;SDS011;71092;41.158;-8.680;2023-07-30T11:36:35;19.70;;;8.30;;
81672;SDS011;71092;41.158;-8.680;2023-07-30T11:39:01;20.05;;;8.70;;
81672;SDS011;71092;41.158;-8.680;2023-07-30T11:41:27;17.25;;;7.82;;
81672;SDS011;71092;41.158;-8.680;2023-07-30T11:43:54;17.08;;;8.80;;
81672;SDS011;71092;41.158;-8.680;2023-07-30T11:46:20;18.00;;;9.00;;
81672;SDS011;71092;41.158;-8.680;2023-07-30T11:48:50;17.33;;;8.70;;
81672;SDS011;71092;41.158;-8.680;2023-07-30T11:53:48;17.48;;;8.80;;
81672;SDS011;71092;41.158;-8.680;2023-07-30T11:56:18;15.63;;;8.07;;
81672;SDS011;71092;41.158;-8.680;2023-07-30T11:58:49;16.50;;;7.88;;
81672;SDS011;71092;41.158;-8.680;2023-07-30T12:01:16;18.52;;;8.63;;
81672;SDS011;71092;41.158;-8.680;2023-07-30T12:03:42;17.83;;;9.25;;
81672;SDS011;71092;41.158;-8.680;2023-07-30T12:06:09;19.80;;;8.85;;
81672;SDS011;71092;41.158;-8.680;2023-07-30T12:08:36;18.65;;;8.38;;
81672;SDS011;71092;41.158;-8.680;2023-07-30T12:11:03;18.85;;;8.30;;
81672;SDS011;71092;41.158;-8.680;2023-07-30T12:13:30;17.23;;;7.78;;
81672;SDS011;71092;41.158;-8.680;2023-07-30T12:15:56;17.73;;;8.93;;
81672;SDS011;71092;41.158;-8.680;2023-07-30T12:18:22;18.35;;;8.20;;
81672;SDS011;71092;41.158;-8.680;2023-07-30T12:20:53;19.65;;;9.55;;
81672;SDS011;71092;41.158;-8.680;2023-07-30T12:23:19;17.95;;;7.97;;
81672;SDS011;71092;41.158;-8.680;2023-07-30T12:25:46;16.70;;;8.15;;
81672;SDS011;71092;41.158;-8.680;2023-07-30T12:28:12;19.52;;;8.82;;
81672;SDS011;71092;41.158;-8.680;2023-07-30T12:30:38;16.33;;;8.35;;
81672;SDS011;71092;41.158;-8.680;2023-07-30T12:33:04;16.73;;;8.40;;
81672;SDS011;71092;41.158;-8.680;2023-07-30T12:35:31;18.77;;;7.60;;
81672;SDS011;71092;41.158;-8.680;2023-07-30T12:37:57;17.73;;;8.95;;
81672;SDS011;71092;41.158;-8.680;2023-07-30T12:40:24;16.50;;;8.10;;
81672;SDS011;71092;41.158;-8.680;2023-07-30T12:42:50;17.40;;;7.88;;
81672;SDS011;71092;41.158;-8.680;2023-07-30T12:45:16;16.13;;;8.27;;
81672;SDS011;71092;41.158;-8.680;2023-07-30T12:47:42;18.08;;;8.82;;
81672;SDS011;71092;41.158;-8.680;2023-07-30T12:50:08;15.75;;;8.45;;
81672;SDS011;71092;41.158;-8.680;2023-07-30T12:52:34;17.88;;;8.07;;
81672;SDS011;71092;41.158;-8.680;2023-07-30T12:55:00;14.13;;;8.05;;
81672;SDS011;71092;41.158;-8.680;2023-07-30T12:57:27;15.27;;;7.93;;
81672;SDS011;71092;41.158;-8.680;2023-07-30T12:59:53;14.98;;;7.85;;
81672;SDS011;71092;41.158;-8.680;2023-07-30T13:02:19;15.70;;;7.82;;
81672;SDS011;71092;41.158;-8.680;2023-07-30T13:04:45;15.35;;;8.77;;
81672;SDS011;71092;41.158;-8.680;2023-07-30T13:07:10;16.67;;;8.38;;
81672;SDS011;71092;41.158;-8.680;2023-07-30T13:09:36;19.60;;;8.50;;
81672;SDS011;71092;41.158;-8.680;2023-07-30T13:12:02;18.73;;;7.95;;
81672;SDS011;71092;41.158;-8.680;2023-07-30T13:14:28;15.48;;;8.68;;
81672;SDS011;71092;41.158;-8.680;2023-07-30T13:16:54;15.38;;;8.38;;
81672;SDS011;71092;41.158;-8.680;2023-07-30T13:19:19;13.98;;;7.90;;
81672;SDS011;71092;41.158;-8.680;2023-07-30T13:21:45;16.00;;;8.18;;
81672;SDS011;71092;41.158;-8.680;2023-07-30T13:24:11;15.60;;;7.30;;
81672;SDS011;71092;41.158;-8.680;2023-07-30T13:26:37;15.00;;;7.65;;
81672;SDS011;71092;41.158;-8.680;2023-07-30T13:29:04;16.10;;;7.63;;
81672;SDS011;71092;41.158;-8.680;2023-07-30T13:31:30;16.67;;;8.52;;
81672;SDS011;71092;41.158;-8.680;2023-07-30T13:33:56;18.50;;;7.72;;
81672;SDS011;71092;41.158;-8.680;2023-07-30T13:36:23;17.10;;;8.57;;
81672;SDS011;71092;41.158;-8.680;2023-07-30T13:38:48;17.65;;;8.27;;
81672;SDS011;71092;41.158;-8.680;2023-07-30T13:41:15;16.10;;;8.23;;
81672;SDS011;71092;41.158;-8.680;2023-07-30T13:43:41;14.45;;;8.10;;
81672;SDS011;71092;41.158;-8.680;2023-07-30T13:46:06;14.63;;;6.93;;
81672;SDS011;71092;41.158;-8.680;2023-07-30T13:48:32;17.38;;;7.53;;
81672;SDS011;71092;41.158;-8.680;2023-07-30T13:50:58;16.48;;;8.30;;
81672;SDS011;71092;41.158;-8.680;2023-07-30T13:53:24;21.35;;;9.25;;
81672;SDS011;71092;41.158;-8.680;2023-07-30T13:55:49;15.10;;;8.10;;
81672;SDS011;71092;41.158;-8.680;2023-07-30T13:58:15;14.65;;;8.35;;
81672;SDS011;71092;41.158;-8.680;2023-07-30T14:00:41;18.60;;;7.90;;
81672;SDS011;71092;41.158;-8.680;2023-07-30T14:03:10;13.35;;;7.35;;
81672;SDS011;71092;41.158;-8.680;2023-07-30T14:05:38;17.40;;;8.07;;
81672;SDS011;71092;41.158;-8.680;2023-07-30T14:08:04;15.52;;;8.00;;
81672;SDS011;71092;41.158;-8.680;2023-07-30T14:10:30;16.15;;;7.60;;
81672;SDS011;71092;41.158;-8.680;2023-07-30T14:12:56;16.92;;;8.10;;
81672;SDS011;71092;41.158;-8.680;2023-07-30T14:15:22;16.60;;;8.23;;
81672;SDS011;71092;41.158;-8.680;2023-07-30T14:17:48;13.77;;;8.15;;
81672;SDS011;71092;41.158;-8.680;2023-07-30T14:20:13;15.60;;;7.30;;
81672;SDS011;71092;41.158;-8.680;2023-07-30T14:22:39;14.88;;;8.18;;
81672;SDS011;71092;41.158;-8.680;2023-07-30T14:25:05;18.73;;;7.18;;
81672;SDS011;71092;41.158;-8.680;2023-07-30T14:27:31;14.43;;;7.38;;
81672;SDS011;71092;41.158;-8.680;2023-07-30T14:29:57;16.23;;;7.30;;
81672;SDS011;71092;41.158;-8.680;2023-07-30T14:32:23;17.13;;;7.78;;
81672;SDS011;71092;41.158;-8.680;2023-07-30T14:34:49;15.68;;;7.40;;
81672;SDS011;71092;41.158;-8.680;2023-07-30T14:37:15;12.43;;;7.82;;
81672;SDS011;71092;41.158;-8.680;2023-07-30T14:39:41;15.05;;;7.18;;
81672;SDS011;71092;41.158;-8.680;2023-07-30T14:42:07;12.23;;;7.15;;
81672;SDS011;71092;41.158;-8.680;2023-07-30T14:44:34;13.82;;;6.93;;
81672;SDS011;71092;41.158;-8.680;2023-07-30T14:47:00;14.00;;;7.70;;
81672;SDS011;71092;41.158;-8.680;2023-07-30T14:49:26;16.85;;;8.18;;
81672;SDS011;71092;41.158;-8.680;2023-07-30T14:51:52;13.93;;;6.90;;